Time;durP1;ratioP1;P1;durP2;ratioP2;P2;SDS_P1;SDS_P2;PMS_P1;PMS_P2;Temp;Humidity;BMP_temperature;BMP_pressure;BME280_temperature;BME280_humidity;BME280_pressure;Samples;Min_cycle;Max_cycle;Signal;HPM_P1;HPM_P2
2021/12/21 00:00:40;;;;;;;11.05;6.85;;;;;;;1.89;100.00;99751.72;1768336;80;21092;-67
2021/12/21 00:03:07;;;;;;;11.88;7.37;;;;;;;1.81;100.00;99753.14;1745647;81;21079;-67
2021/12/21 00:05:35;;;;;;;11.00;7.28;;;;;;;1.79;100.00;99765.85;1755322;79;20968;-66
2021/12/21 00:08:06;;;;;;;12.40;7.83;;;;;;;1.71;100.00;99761.36;1798290;78;21563;-68
2021/12/21 00:10:33;;;;;;;12.03;7.58;;;;;;;1.71;100.00;99755.02;1782945;78;21032;-67
2021/12/21 00:13:11;;;;;;;10.98;7.40;;;;;;;1.74;100.00;99761.28;1778149;79;21040;-67
2021/12/21 00:15:49;;;;;;;13.05;7.53;;;;;;;1.74;100.00;99768.06;1782041;78;21090;-67
2021/12/21 00:21:01;;;;;;;10.95;7.60;;;;;;;1.70;100.00;99752.06;1773575;78;20999;-67
2021/12/21 00:23:37;;;;;;;10.80;7.30;;;;;;;1.70;100.00;99756.31;1780794;78;21064;-68
2021/12/21 00:26:13;;;;;;;10.38;7.00;;;;;;;1.68;100.00;99754.23;1784759;78;21540;-67
2021/12/21 00:29:01;;;;;;;11.08;7.00;;;;;;;1.64;100.00;99757.26;1783908;78;20969;-67
2021/12/21 00:31:35;;;;;;;10.90;6.97;;;;;;;1.63;100.00;99757.31;1718825;81;21023;-67
2021/12/21 00:34:06;;;;;;;10.58;7.12;;;;;;;1.68;100.00;99756.33;1730401;81;21889;-67
2021/12/21 00:36:35;;;;;;;20.75;11.33;;;;;;;1.83;100.00;99755.66;1787864;78;21450;-67
2021/12/21 00:39:07;;;;;;;15.13;9.28;;;;;;;1.83;100.00;99755.66;1775811;79;21514;-67
2021/12/21 00:41:35;;;;;;;13.65;8.50;;;;;;;1.72;100.00;99752.87;1741251;81;20997;-66
2021/12/21 00:44:02;;;;;;;12.18;8.33;;;;;;;1.68;100.00;99744.91;1772400;79;21581;-66
2021/12/21 00:46:29;;;;;;;13.95;7.80;;;;;;;1.62;100.00;99743.77;1780567;80;21067;-66
2021/12/21 00:49:01;;;;;;;11.48;7.40;;;;;;;1.59;100.00;99748.92;1776576;78;21018;-66
2021/12/21 00:51:27;;;;;;;10.13;7.03;;;;;;;1.67;100.00;99739.45;1768783;80;21099;-66
2021/12/21 00:53:55;;;;;;;12.05;7.40;;;;;;;1.67;100.00;99739.45;1783963;78;21508;-66
2021/12/21 00:56:22;;;;;;;13.40;7.78;;;;;;;1.70;100.00;99745.72;1776080;78;20979;-66
2021/12/21 00:58:49;;;;;;;12.40;7.75;;;;;;;1.72;100.00;99741.89;1760398;80;21070;-66
2021/12/21 01:01:16;;;;;;;13.30;8.60;;;;;;;1.78;100.00;99743.89;1767676;79;21461;-66
2021/12/21 01:03:48;;;;;;;14.07;8.98;;;;;;;1.85;100.00;99738.25;1760422;79;21043;-66
2021/12/21 01:06:20;;;;;;;13.08;8.03;;;;;;;1.89;100.00;99743.66;1707648;82;21084;-66
2021/12/21 01:11:31;;;;;;;21.77;12.90;;;;;;;1.95;100.00;99756.23;1764799;79;20988;-66
2021/12/21 01:14:07;;;;;;;28.52;15.95;;;;;;;1.93;100.00;99760.94;1760356;79;21078;-66
2021/12/21 01:16:34;;;;;;;29.05;17.00;;;;;;;1.93;100.00;99760.94;1765145;79;21042;-66
2021/12/21 01:21:30;;;;;;;22.60;13.72;;;;;;;1.84;100.00;99761.11;1748706;80;21004;-65
2021/12/21 01:29:14;;;;;;;13.95;8.55;;;;;;;1.92;100.00;99758.81;1795957;78;21465;-67
2021/12/21 01:31:44;;;;;;;11.40;7.85;;;;;;;1.97;100.00;99762.55;1757645;80;21051;-66
2021/12/21 01:34:16;;;;;;;11.50;7.83;;;;;;;1.97;100.00;99765.09;1729063;81;21110;-67
2021/12/21 01:36:38;;;;;;;12.58;8.50;;;;;;;1.88;100.00;99771.60;1744998;81;21043;-67
2021/12/21 01:39:12;;;;;;;17.37;10.25;;;;;;;1.84;100.00;99780.14;1787621;80;21093;-66
2021/12/21 01:41:51;;;;;;;17.57;10.80;;;;;;;1.78;100.00;99783.63;1775366;79;21077;-66
2021/12/21 01:49:49;;;;;;;26.37;15.38;;;;;;;1.58;100.00;99780.21;1778977;78;21094;-66
2021/12/21 01:52:17;;;;;;;28.95;15.70;;;;;;;1.57;100.00;99778.11;1780280;78;21039;-67
2021/12/21 01:54:45;;;;;;;31.80;16.00;;;;;;;1.55;100.00;99779.84;1805420;78;21058;-66
2021/12/21 01:57:13;;;;;;;27.82;16.12;;;;;;;1.57;100.00;99782.36;1793387;78;21489;-66
2021/12/21 01:59:41;;;;;;;29.65;16.07;;;;;;;1.57;100.00;99782.36;1777631;80;21059;-67
2021/12/21 02:02:13;;;;;;;28.20;15.98;;;;;;;1.59;100.00;99783.16;1785699;79;21026;-66
2021/12/21 02:04:41;;;;;;;31.60;17.52;;;;;;;1.59;100.00;99783.16;1759036;78;21069;-67
2021/12/21 02:07:12;;;;;;;31.80;17.30;;;;;;;1.57;100.00;99786.16;1777929;80;21038;-67
2021/12/21 02:09:39;;;;;;;33.80;18.07;;;;;;;1.53;100.00;99784.55;1780865;79;21062;-67
2021/12/21 02:12:12;;;;;;;36.65;18.20;;;;;;;1.53;100.00;99784.55;1785013;78;21061;-67
2021/12/21 02:14:42;;;;;;;21.75;12.73;;;;;;;1.55;100.00;99794.23;1776392;80;21015;-66
2021/12/21 02:19:51;;;;;;;10.55;6.40;;;;;;;1.44;100.00;99793.17;1781989;79;20987;-67
2021/12/21 02:22:16;;;;;;;8.30;5.42;;;;;;;1.32;100.00;99798.03;1786696;79;21125;-67
2021/12/21 02:27:40;;;;;;;9.48;6.10;;;;;;;1.22;100.00;99804.53;1725879;81;21032;-67
2021/12/21 02:29:57;;;;;;;9.60;5.90;;;;;;;1.12;100.00;99807.67;1756809;80;21012;-67
2021/12/21 02:32:23;;;;;;;8.90;5.70;;;;;;;0.95;100.00;99814.27;1746656;80;20984;-67
2021/12/21 02:34:50;;;;;;;8.73;5.72;;;;;;;0.81;100.00;99815.74;1722524;82;21054;-67
2021/12/21 02:37:17;;;;;;;8.08;5.25;;;;;;;0.73;100.00;99804.89;1727495;81;21670;-67
2021/12/21 02:39:44;;;;;;;8.85;5.30;;;;;;;0.74;100.00;99805.31;1723103;82;21617;-67
2021/12/21 02:42:10;;;;;;;9.25;5.60;;;;;;;0.67;100.00;99808.38;1734728;81;21016;-67
2021/12/21 02:44:38;;;;;;;7.85;5.33;;;;;;;0.58;100.00;99815.66;1733154;81;21047;-67
2021/12/21 02:47:06;;;;;;;8.83;5.87;;;;;;;0.62;100.00;99818.16;1740249;81;21130;-67
2021/12/21 02:49:33;;;;;;;8.23;5.42;;;;;;;0.64;100.00;99817.27;1782333;79;21027;-67
2021/12/21 02:52:00;;;;;;;7.87;5.00;;;;;;;0.74;100.00;99822.61;1777810;80;20995;-67
2021/12/21 02:54:27;;;;;;;9.03;5.05;;;;;;;0.73;100.00;99824.75;1778492;79;21051;-67
2021/12/21 02:56:53;;;;;;;8.65;4.92;;;;;;;0.70;100.00;99839.15;1784697;79;21089;-67
2021/12/21 02:59:20;;;;;;;8.88;5.22;;;;;;;0.68;100.00;99839.16;1780593;79;21024;-67
2021/12/21 03:01:47;;;;;;;9.63;5.15;;;;;;;0.63;100.00;99841.34;1785620;79;20999;-67
2021/12/21 03:04:14;;;;;;;10.38;5.30;;;;;;;0.54;100.00;99838.08;1784469;79;21004;-67
2021/12/21 03:11:48;;;;;;;11.38;6.67;;;;;;;0.44;100.00;99858.06;1780654;79;21081;-67
2021/12/21 03:14:16;;;;;;;11.33;6.45;;;;;;;0.38;100.00;99859.41;1779214;78;21004;-66
2021/12/21 03:16:43;;;;;;;10.23;5.72;;;;;;;0.37;100.00;99865.34;1780706;78;21031;-67
2021/12/21 03:19:11;;;;;;;10.23;6.08;;;;;;;0.32;100.00;99865.81;1766771;80;21548;-67
2021/12/21 03:21:39;;;;;;;10.10;5.97;;;;;;;0.37;100.00;99866.61;1758445;80;21085;-67
2021/12/21 03:24:09;;;;;;;15.45;7.37;;;;;;;0.34;100.00;99867.90;1763299;80;21098;-67
2021/12/21 03:26:37;;;;;;;9.73;6.28;;;;;;;0.24;100.00;99863.37;1750001;80;21515;-68
2021/12/21 03:29:06;;;;;;;9.35;5.55;;;;;;;0.18;100.00;99870.63;1770723;80;21031;-67
2021/12/21 03:31:33;;;;;;;6.62;4.12;;;;;;;0.03;100.00;99878.83;1757827;80;21055;-67
2021/12/21 03:34:01;;;;;;;6.47;3.70;;;;;;;-0.26;100.00;99884.60;1780559;79;21032;-67
2021/12/21 03:36:28;;;;;;;5.78;3.90;;;;;;;-0.35;100.00;99875.83;1768938;78;20983;-67
2021/12/21 03:41:28;;;;;;;5.97;3.90;;;;;;;-0.47;100.00;99880.56;1765021;80;21042;-67
2021/12/21 03:43:56;;;;;;;7.20;3.90;;;;;;;-0.55;100.00;99889.08;1730069;81;21023;-67
2021/12/21 03:46:24;;;;;;;5.37;3.10;;;;;;;-0.44;100.00;99881.81;1727622;81;21050;-67
2021/12/21 03:48:51;;;;;;;5.83;3.12;;;;;;;-0.40;100.00;99894.01;1780400;78;21022;-67
2021/12/21 03:51:20;;;;;;;9.08;5.47;;;;;;;-0.44;100.00;99898.69;1779218;79;21035;-67
2021/12/21 03:53:49;;;;;;;8.65;5.67;;;;;;;-0.49;100.00;99902.49;1776746;79;21515;-67
2021/12/21 03:58:44;;;;;;;6.65;4.50;;;;;;;-0.56;100.00;99907.64;1762571;80;21587;-67
2021/12/21 04:01:11;;;;;;;7.33;4.90;;;;;;;-0.64;100.00;99900.94;1695658;83;21087;-67
2021/12/21 04:03:38;;;;;;;6.42;4.33;;;;;;;-0.63;100.00;99914.02;1769028;80;21036;-67
2021/12/21 04:06:06;;;;;;;6.50;4.00;;;;;;;-0.66;100.00;99910.23;1751346;80;21091;-67
2021/12/21 04:08:36;;;;;;;7.65;4.28;;;;;;;-0.78;100.00;99916.64;1693553;83;21102;-68
2021/12/21 04:11:05;;;;;;;7.35;4.35;;;;;;;-0.72;100.00;99924.61;1726766;81;21071;-67
2021/12/21 04:13:32;;;;;;;6.05;4.05;;;;;;;-0.70;100.00;99931.32;1728976;81;21039;-67
2021/12/21 04:16:02;;;;;;;6.20;3.98;;;;;;;-0.81;100.00;99940.69;1742957;81;21055;-67
2021/12/21 04:18:28;;;;;;;6.62;4.03;;;;;;;-0.72;100.00;99939.77;1748568;81;21088;-67
2021/12/21 04:20:56;;;;;;;5.92;3.80;;;;;;;-0.79;100.00;99942.77;1740815;81;21040;-67
2021/12/21 04:23:23;;;;;;;6.35;4.17;;;;;;;-0.70;100.00;99937.64;1734645;81;21175;-67
2021/12/21 04:25:49;;;;;;;5.12;3.27;;;;;;;-0.80;100.00;99941.08;1741269;81;21025;-67
2021/12/21 04:28:16;;;;;;;4.95;3.67;;;;;;;-0.84;100.00;99947.01;1710355;83;21020;-67
2021/12/21 04:30:43;;;;;;;5.78;3.70;;;;;;;-0.93;100.00;99945.39;1744996;81;21063;-67
2021/12/21 04:33:10;;;;;;;5.22;3.67;;;;;;;-0.97;100.00;99945.39;1744752;81;21024;-67
2021/12/21 04:35:36;;;;;;;5.25;3.90;;;;;;;-0.97;100.00;99952.57;1779263;78;20987;-67
2021/12/21 04:38:20;;;;;;;7.28;4.37;;;;;;;-0.97;100.00;99960.16;1783381;78;21575;-66
2021/12/21 04:40:42;;;;;;;7.12;3.85;;;;;;;-0.91;100.00;99961.78;1775931;78;21094;-67
2021/12/21 04:43:08;;;;;;;5.08;3.33;;;;;;;-0.86;100.00;99968.92;1777172;80;21007;-68
2021/12/21 04:45:35;;;;;;;5.00;3.40;;;;;;;-0.91;100.00;99975.27;1769238;81;20992;-68
2021/12/21 04:48:01;;;;;;;5.50;3.08;;;;;;;-0.95;100.00;99976.14;1739322;82;21095;-68
2021/12/21 04:50:29;;;;;;;5.80;3.12;;;;;;;-0.93;100.00;99982.42;1749420;80;21063;-68
2021/12/21 04:52:57;;;;;;;4.95;3.00;;;;;;;-0.93;100.00;99984.95;1751777;81;20980;-69
2021/12/21 04:55:24;;;;;;;5.65;3.12;;;;;;;-0.91;100.00;100000.54;1721366;82;21070;-68
2021/12/21 04:57:50;;;;;;;4.83;3.08;;;;;;;-0.85;100.00;100001.77;1726938;82;20988;-68
2021/12/21 05:00:18;;;;;;;4.60;2.95;;;;;;;-0.84;100.00;100000.91;1743627;81;21056;-68
2021/12/21 05:02:46;;;;;;;4.53;2.72;;;;;;;-0.77;100.00;100002.99;1708987;81;21008;-68
2021/12/21 05:05:14;;;;;;;4.92;2.77;;;;;;;-0.90;100.00;100006.42;1778661;79;20984;-68
2021/12/21 05:07:46;;;;;;;4.75;2.77;;;;;;;-0.98;100.00;100015.73;1781179;79;21011;-68
2021/12/21 05:10:11;;;;;;;4.47;2.87;;;;;;;-0.97;100.00;100016.13;1798222;79;21555;-69
2021/12/21 05:12:39;;;;;;;6.53;2.98;;;;;;;-1.00;100.00;100015.73;1794039;80;21067;-68
2021/12/21 05:15:08;;;;;;;4.80;3.22;;;;;;;-1.04;100.00;100016.59;1788450;79;21057;-68
2021/12/21 05:17:37;;;;;;;4.55;3.20;;;;;;;-1.03;100.00;100018.28;1789486;79;21027;-68
2021/12/21 05:20:06;;;;;;;5.25;3.58;;;;;;;-0.99;100.00;100032.58;1782303;79;22145;-68
2021/12/21 05:22:35;;;;;;;5.87;3.52;;;;;;;-0.94;100.00;100031.29;1784046;80;21040;-68
2021/12/21 05:25:07;;;;;;;6.72;4.17;;;;;;;-0.94;100.00;100034.64;1785622;79;21039;-68
2021/12/21 05:27:35;;;;;;;22.22;11.73;;;;;;;-0.95;100.00;100042.23;1788552;79;21028;-67
2021/12/21 05:30:05;;;;;;;26.23;13.55;;;;;;;-0.92;100.00;100039.27;1728813;82;21130;-68
2021/12/21 05:32:33;;;;;;;21.95;10.95;;;;;;;-0.91;100.00;100041.36;1772543;79;21511;-68
2021/12/21 05:35:00;;;;;;;12.73;6.70;;;;;;;-0.88;100.00;100045.16;1786609;79;21036;-67
2021/12/21 05:37:27;;;;;;;12.30;6.85;;;;;;;-0.92;100.00;100047.28;1797226;79;21063;-67
2021/12/21 05:40:09;;;;;;;13.43;7.00;;;;;;;-0.92;100.00;100051.07;1787420;79;21054;-68
2021/12/21 05:42:26;;;;;;;11.97;6.20;;;;;;;-0.89;100.00;100055.69;1798764;78;21174;-68
2021/12/21 05:44:53;;;;;;;8.65;5.25;;;;;;;-0.86;100.00;100065.77;1792318;80;21071;-68
2021/12/21 05:47:22;;;;;;;7.53;5.10;;;;;;;-0.89;100.00;100066.20;1776807;79;21475;-68
2021/12/21 05:49:48;;;;;;;9.80;5.78;;;;;;;-0.88;100.00;100067.47;1787795;80;21496;-67
2021/12/21 05:52:15;;;;;;;13.08;7.20;;;;;;;-0.88;100.00;100069.16;1776171;79;21043;-67
2021/12/21 05:54:42;;;;;;;12.28;7.08;;;;;;;-0.83;100.00;100074.61;1773649;80;21075;-68
2021/12/21 05:57:08;;;;;;;17.90;7.50;;;;;;;-0.76;100.00;100075.84;1725074;81;21011;-68
2021/12/21 05:59:36;;;;;;;15.28;7.80;;;;;;;-0.77;100.00;100077.55;1733013;81;21134;-68
2021/12/21 06:02:05;;;;;;;19.27;9.35;;;;;;;-0.78;100.00;100089.75;1724585;82;21156;-68
2021/12/21 06:04:31;;;;;;;16.60;8.75;;;;;;;-0.75;100.00;100095.20;1770621;79;21020;-68
2021/12/21 06:06:58;;;;;;;17.73;8.68;;;;;;;-0.74;100.00;100097.73;1737193;80;22227;-67
2021/12/21 06:09:25;;;;;;;17.12;8.30;;;;;;;-0.69;100.00;100101.49;1723126;81;21032;-68
2021/12/21 06:12:09;;;;;;;13.60;6.92;;;;;;;-0.61;100.00;100099.77;1728565;82;21513;-68
2021/12/21 06:27:56;;;;;;;19.82;8.33;;;;;;;-0.15;100.00;100103.30;1773033;79;20991;-67
2021/12/21 06:30:24;;;;;;;14.93;8.20;;;;;;;-0.13;100.00;100107.09;1700612;81;21031;-67
2021/12/21 06:32:52;;;;;;;17.55;8.88;;;;;;;-0.17;100.00;100101.64;1734893;82;21071;-68
2021/12/21 06:35:19;;;;;;;19.65;9.20;;;;;;;-0.19;100.00;100107.13;1736889;82;21062;-67
2021/12/21 06:37:46;;;;;;;20.05;8.60;;;;;;;-0.13;100.00;100109.62;1753445;80;21459;-67
2021/12/21 06:40:14;;;;;;;19.82;9.18;;;;;;;-0.06;100.00;100119.70;1722250;80;21039;-68
2021/12/21 06:42:44;;;;;;;23.65;9.93;;;;;;;-0.03;100.00;100115.03;1774972;79;21352;-67
2021/12/21 06:45:24;;;;;;;22.05;10.58;;;;;;;0.02;100.00;100123.45;1703246;80;21072;-67
2021/12/21 06:53:12;;;;;;;41.58;16.93;;;;;;;0.28;100.00;100128.72;1764131;80;21043;-67
2021/12/21 06:55:39;;;;;;;39.48;17.25;;;;;;;0.24;100.00;100136.75;1757940;81;21032;-67
2021/12/21 06:58:06;;;;;;;37.45;16.95;;;;;;;0.26;100.00;100139.28;1754578;81;21076;-68
2021/12/21 07:00:34;;;;;;;29.55;12.85;;;;;;;0.33;100.00;100139.23;1754396;80;21022;-67
2021/12/21 07:03:01;;;;;;;26.87;12.28;;;;;;;0.25;100.00;100140.15;1757054;80;21524;-68
2021/12/21 07:05:30;;;;;;;28.12;12.37;;;;;;;0.26;100.00;100149.41;1774396;79;21016;-68
2021/12/21 07:07:56;;;;;;;17.48;9.18;;;;;;;0.31;100.00;100146.43;1800984;78;21007;-67
2021/12/21 07:10:27;;;;;;;23.02;11.22;;;;;;;0.23;100.00;100155.34;1779457;78;21040;-67
2021/12/21 07:18:29;;;;;;;12.03;6.80;;;;;;;0.37;100.00;100158.61;1769014;80;21472;-67
2021/12/21 07:20:59;;;;;;;10.08;6.33;;;;;;;0.43;100.00;100160.25;1779755;79;21046;-67
2021/12/21 07:23:30;;;;;;;13.18;7.67;;;;;;;0.36;100.00;100162.41;1782364;78;21063;-68
2021/12/21 07:25:57;;;;;;;14.07;6.92;;;;;;;0.44;100.00;100169.95;1771157;79;20987;-67
2021/12/21 07:28:23;;;;;;;19.00;7.80;;;;;;;0.50;100.00;100168.63;1735670;80;21023;-67
2021/12/21 07:30:50;;;;;;;11.12;6.35;;;;;;;0.52;100.00;100173.25;1721780;82;21515;-66
2021/12/21 07:33:18;;;;;;;12.45;7.53;;;;;;;0.36;100.00;100173.36;1764596;80;21115;-67
2021/12/21 07:35:45;;;;;;;11.20;7.15;;;;;;;0.47;100.00;100174.57;1764640;79;20973;-67
2021/12/21 07:38:14;;;;;;;13.93;8.60;;;;;;;0.45;100.00;100182.61;1739280;80;21019;-67
2021/12/21 07:40:40;;;;;;;11.20;7.53;;;;;;;0.47;100.00;100183.43;1756219;79;21060;-68
2021/12/21 07:43:08;;;;;;;11.08;7.20;;;;;;;0.28;100.00;100183.98;1767352;78;21524;-68
2021/12/21 07:45:37;;;;;;;13.00;6.85;;;;;;;0.24;100.00;100182.75;1770380;79;21044;-67
2021/12/21 07:48:05;;;;;;;12.78;7.33;;;;;;;0.16;100.00;100192.92;1767712;80;21000;-68
2021/12/21 07:50:32;;;;;;;13.90;7.97;;;;;;;0.23;100.00;100195.84;1764703;79;20997;-68
2021/12/21 07:53:01;;;;;;;11.03;7.00;;;;;;;0.36;100.00;100199.12;1762168;79;21058;-67
2021/12/21 07:55:28;;;;;;;12.40;7.22;;;;;;;0.27;100.00;100197.94;1763722;79;21019;-67
2021/12/21 07:57:55;;;;;;;14.33;6.83;;;;;;;0.26;100.00;100207.63;1737048;80;21085;-67
2021/12/21 08:00:23;;;;;;;13.98;7.17;;;;;;;0.32;100.00;100202.52;1773363;80;20991;-67
2021/12/21 08:02:50;;;;;;;12.75;7.47;;;;;;;0.39;100.00;100196.58;1784692;79;20992;-68
2021/12/21 08:05:19;;;;;;;10.58;7.12;;;;;;;0.49;100.00;100194.83;1767267;80;21461;-67
2021/12/21 08:07:55;;;;;;;13.28;7.42;;;;;;;0.50;100.00;100193.95;1786016;78;21453;-68
2021/12/21 08:10:41;;;;;;;13.83;7.72;;;;;;;0.59;100.00;100195.99;1759110;79;21019;-67
2021/12/21 08:12:59;;;;;;;10.35;6.95;;;;;;;0.62;100.00;100203.98;1723433;81;21129;-68
2021/12/21 08:15:26;;;;;;;11.10;6.83;;;;;;;0.66;100.00;100196.77;1723500;81;21176;-69
2021/12/21 08:17:53;;;;;;;12.75;7.47;;;;;;;0.67;100.00;100199.73;1724611;81;21479;-67
2021/12/21 08:20:20;;;;;;;12.60;7.45;;;;;;;0.74;100.00;100209.38;1716752;82;21050;-68
2021/12/21 08:22:48;;;;;;;12.60;7.10;;;;;;;0.79;100.00;100208.90;1718786;82;21610;-67
2021/12/21 08:25:15;;;;;;;15.80;8.58;;;;;;;0.76;100.00;100199.64;1751036;80;21077;-67
2021/12/21 08:27:42;;;;;;;15.50;8.65;;;;;;;0.66;100.00;100209.87;1753861;80;21044;-68
2021/12/21 08:30:10;;;;;;;15.18;8.23;;;;;;;0.59;100.00;100207.83;1751508;80;20989;-67
2021/12/21 08:32:37;;;;;;;16.12;8.50;;;;;;;0.51;100.00;100204.08;1734672;80;21034;-68
2021/12/21 08:35:05;;;;;;;16.15;8.30;;;;;;;0.55;100.00;100209.53;1774664;79;21027;-68
2021/12/21 08:37:35;;;;;;;16.80;8.65;;;;;;;0.48;100.00;100212.95;1777302;79;21054;-67
2021/12/21 08:40:06;;;;;;;13.65;8.20;;;;;;;0.50;100.00;100211.69;1787353;80;21019;-68
2021/12/21 08:42:36;;;;;;;14.85;7.47;;;;;;;0.52;100.00;100213.78;1781770;79;21016;-68
2021/12/21 08:45:06;;;;;;;8.53;5.20;;;;;;;0.69;100.00;100228.83;1773400;80;21048;-69
2021/12/21 08:47:36;;;;;;;14.63;7.55;;;;;;;0.63;100.00;100231.41;1780045;79;21023;-69
2021/12/21 08:50:07;;;;;;;12.33;6.97;;;;;;;0.47;100.00;100222.69;1759578;80;21023;-69
2021/12/21 08:52:36;;;;;;;9.50;5.92;;;;;;;0.55;100.00;100227.27;1786954;78;21104;-68
2021/12/21 08:55:07;;;;;;;8.28;4.80;;;;;;;0.52;100.00;100227.27;1757667;80;21496;-68
2021/12/21 08:57:36;;;;;;;8.35;5.17;;;;;;;0.47;100.00;100225.22;1785465;79;21049;-68
2021/12/21 09:00:08;;;;;;;8.43;5.10;;;;;;;0.46;100.00;100228.58;1774891;79;21053;-68
2021/12/21 09:02:37;;;;;;;8.70;5.58;;;;;;;0.22;100.00;100238.45;1783972;79;21471;-68
2021/12/21 09:05:15;;;;;;;10.48;6.03;;;;;;;0.16;100.00;100235.95;1776294;79;20995;-68
2021/12/21 09:07:43;;;;;;;8.80;5.70;;;;;;;0.03;100.00;100247.84;1776170;80;20996;-67
2021/12/21 09:10:13;;;;;;;9.45;6.30;;;;;;;-0.03;100.00;100240.28;1776689;80;21062;-68
2021/12/21 09:12:41;;;;;;;9.58;6.35;;;;;;;-0.09;100.00;100241.58;1777087;79;21023;-68
2021/12/21 09:15:10;;;;;;;8.90;5.87;;;;;;;-0.10;100.00;100248.73;1780843;79;21071;-68
2021/12/21 09:17:39;;;;;;;8.18;5.60;;;;;;;-0.07;100.00;100242.41;1788094;79;21058;-69
2021/12/21 09:20:08;;;;;;;11.27;6.13;;;;;;;0.05;100.00;100242.78;1771407;80;21098;-68
2021/12/21 09:22:37;;;;;;;11.83;6.80;;;;;;;0.09;100.00;100247.81;1778054;79;21515;-68
2021/12/21 09:25:05;;;;;;;9.95;6.15;;;;;;;-0.12;100.00;100249.17;1783710;79;21011;-68
2021/12/21 09:27:32;;;;;;;10.82;6.85;;;;;;;-0.14;100.00;100252.12;1775940;79;21031;-66
2021/12/21 09:29:59;;;;;;;11.22;7.20;;;;;;;-0.18;100.00;100251.33;1778602;79;21066;-68
2021/12/21 09:32:27;;;;;;;14.43;8.50;;;;;;;-0.24;100.00;100257.67;1771886;80;21020;-68
2021/12/21 09:34:54;;;;;;;15.68;8.93;;;;;;;-0.11;100.00;100255.92;1759403;78;21074;-67
2021/12/21 09:37:21;;;;;;;12.80;8.33;;;;;;;0.06;100.00;100255.83;1780465;79;21113;-68
2021/12/21 09:39:52;;;;;;;12.37;7.40;;;;;;;0.13;100.00;100258.77;1783652;79;21083;-68
2021/12/21 09:42:23;;;;;;;14.68;7.55;;;;;;;0.06;100.00;100256.70;1785025;79;21054;-67
2021/12/21 09:44:51;;;;;;;10.00;6.55;;;;;;;0.36;100.00;100258.19;1784118;80;21010;-68
2021/12/21 09:47:18;;;;;;;10.30;6.30;;;;;;;0.32;100.00;100267.09;1776726;78;21531;-68
2021/12/21 09:49:47;;;;;;;12.10;7.00;;;;;;;0.28;100.00;100257.83;1780856;79;21538;-67
2021/12/21 09:52:19;;;;;;;11.78;6.95;;;;;;;0.18;100.00;100259.56;1783078;80;21049;-67
2021/12/21 09:54:46;;;;;;;13.18;7.65;;;;;;;0.09;100.00;100260.46;1780371;79;21023;-68
2021/12/21 09:57:16;;;;;;;13.18;7.58;;;;;;;0.19;100.00;100254.94;1780539;80;21000;-67
2021/12/21 09:59:47;;;;;;;9.63;6.35;;;;;;;0.35;100.00;100265.38;1782880;78;21019;-68
2021/12/21 10:02:15;;;;;;;8.08;5.67;;;;;;;0.27;100.00;100263.33;1775910;79;21155;-68
2021/12/21 10:04:59;;;;;;;9.20;6.05;;;;;;;0.31;100.00;100254.03;1773907;80;20995;-67
2021/12/21 10:07:28;;;;;;;9.38;5.97;;;;;;;0.33;100.00;100261.19;1774976;79;21039;-66
2021/12/21 10:10:15;;;;;;;9.40;5.72;;;;;;;0.38;100.00;100250.16;1780678;79;21035;-66
2021/12/21 10:12:46;;;;;;;9.03;5.72;;;;;;;0.25;100.00;100259.12;1778767;79;21151;-68
2021/12/21 10:15:21;;;;;;;9.38;5.50;;;;;;;0.09;100.00;100260.90;1779806;79;21071;-68
2021/12/21 10:18:04;;;;;;;9.53;5.50;;;;;;;-0.06;100.00;100257.59;1790601;78;21067;-68
2021/12/21 10:20:37;;;;;;;8.85;6.08;;;;;;;-0.10;100.00;100262.66;1776863;80;21051;-68
2021/12/21 10:23:21;;;;;;;11.70;6.12;;;;;;;-0.04;100.00;100263.48;1782197;79;21087;-67
2021/12/21 10:25:59;;;;;;;12.10;7.10;;;;;;;-0.04;100.00;100258.83;1775052;80;22672;-68
2021/12/21 10:28:39;;;;;;;11.03;6.22;;;;;;;-0.05;100.00;100259.69;1781910;79;21087;-68
2021/12/21 10:31:12;;;;;;;9.60;5.97;;;;;;;-0.01;100.00;100263.45;1802647;78;21019;-67
2021/12/21 10:33:45;;;;;;;9.20;6.05;;;;;;;-0.01;100.00;100266.42;1751380;80;21087;-67
2021/12/21 10:36:13;;;;;;;9.58;5.62;;;;;;;0.05;100.00;100270.19;1786582;79;21036;-66
2021/12/21 10:38:54;;;;;;;11.40;6.30;;;;;;;-0.06;100.00;100279.50;1784204;79;21008;-67
2021/12/21 10:41:37;;;;;;;8.65;4.80;;;;;;;-0.14;100.00;100267.31;1785848;79;21023;-67
2021/12/21 10:44:14;;;;;;;10.03;5.97;;;;;;;-0.13;100.00;100275.33;1778185;80;21015;-67
2021/12/21 10:46:49;;;;;;;5.60;4.00;;;;;;;-0.32;100.00;100275.83;1786348;79;21002;-67
2021/12/21 10:49:25;;;;;;;5.40;3.52;;;;;;;-0.57;100.00;100272.08;1786459;78;21460;-67
2021/12/21 10:52:05;;;;;;;5.30;3.15;;;;;;;-0.83;100.00;100284.36;1784512;79;21054;-67
2021/12/21 10:54:42;;;;;;;5.58;3.62;;;;;;;-1.04;100.00;100275.52;1780164;79;21071;-66
2021/12/21 10:57:22;;;;;;;6.42;3.55;;;;;;;-1.09;100.00;100273.01;1779726;78;21046;-67
2021/12/21 10:59:53;;;;;;;8.95;4.67;;;;;;;-1.11;100.00;100277.65;1783094;79;21031;-69
2021/12/21 11:02:30;;;;;;;10.50;5.65;;;;;;;-0.98;100.00;100270.89;1773733;79;21038;-66
2021/12/21 11:05:08;;;;;;;10.82;5.72;;;;;;;-0.95;100.00;100263.30;1778586;79;21050;-67
2021/12/21 11:07:45;;;;;;;8.15;4.90;;;;;;;-0.91;100.00;100264.58;1786044;79;21023;-67
2021/12/21 11:10:17;;;;;;;7.17;4.50;;;;;;;-1.01;100.00;100265.00;1779208;80;21047;-67
2021/12/21 11:12:57;;;;;;;7.87;4.67;;;;;;;-0.85;100.00;100271.31;1773044;80;21051;-67
2021/12/21 11:15:29;;;;;;;7.53;4.35;;;;;;;-0.86;100.00;100273.41;1782830;79;20987;-67
2021/12/21 11:17:59;;;;;;;8.13;4.08;;;;;;;-0.83;100.00;100283.09;1784508;79;21106;-67
2021/12/21 11:20:27;;;;;;;6.00;3.52;;;;;;;-0.92;100.00;100293.63;1782516;78;21007;-68
2021/12/21 11:22:55;;;;;;;5.58;3.52;;;;;;;-0.94;100.00;100288.57;1790299;79;21141;-67
2021/12/21 11:25:23;;;;;;;7.35;4.00;;;;;;;-0.86;100.00;100295.72;1776464;79;21103;-67
2021/12/21 11:27:51;;;;;;;5.45;3.40;;;;;;;-0.78;100.00;100291.09;1774021;80;21068;-67
2021/12/21 11:30:24;;;;;;;5.70;3.22;;;;;;;-0.83;100.00;100305.02;1789302;78;21066;-67
2021/12/21 11:32:56;;;;;;;4.33;2.98;;;;;;;-0.99;100.00;100311.75;1754324;80;21522;-67
2021/12/21 11:38:05;;;;;;;7.33;3.35;;;;;;;-1.19;100.00;100319.74;1791454;78;21587;-67
2021/12/21 11:40:36;;;;;;;5.65;3.30;;;;;;;-1.18;100.00;100319.72;1759585;80;21118;-66
2021/12/21 11:43:32;;;;;;;5.53;3.40;;;;;;;-1.12;100.00;100323.94;1785465;79;21059;-66
2021/12/21 11:46:05;;;;;;;7.85;3.70;;;;;;;-1.04;100.00;100319.73;1784229;79;21059;-67
2021/12/21 11:49:00;;;;;;;9.07;3.40;;;;;;;-1.11;100.00;100320.59;1784135;79;21090;-66
2021/12/21 11:51:28;;;;;;;3.58;2.45;;;;;;;-1.24;100.00;100338.26;1754080;80;21078;-66
2021/12/21 11:53:56;;;;;;;4.27;2.50;;;;;;;-1.63;100.00;100356.23;1788430;79;21023;-66
2021/12/21 11:56:27;;;;;;;5.40;2.75;;;;;;;-1.63;100.00;100333.95;1783867;78;21086;-67
2021/12/21 11:58:57;;;;;;;4.55;2.60;;;;;;;-1.56;100.00;100341.11;1784281;79;21023;-66
2021/12/21 12:01:30;;;;;;;4.13;2.37;;;;;;;-1.69;100.00;100341.07;1782300;79;21069;-66
2021/12/21 12:04:11;;;;;;;4.43;2.43;;;;;;;-1.73;100.00;100339.80;1782501;79;20971;-66
2021/12/21 12:06:54;;;;;;;3.53;2.53;;;;;;;-1.75;100.00;100344.84;1779309;79;21015;-66
2021/12/21 12:09:34;;;;;;;4.70;3.13;;;;;;;-1.84;100.00;100354.91;1779383;78;21015;-66
2021/12/21 12:12:17;;;;;;;6.53;3.60;;;;;;;-1.95;100.00;100349.80;1781397;79;21646;-67
2021/12/21 12:14:47;;;;;;;4.33;2.77;;;;;;;-1.96;100.00;100351.08;1779208;79;21020;-66
2021/12/21 12:17:22;;;;;;;5.90;3.50;;;;;;;-2.10;100.00;100373.70;1785977;79;21451;-66
2021/12/21 12:20:00;;;;;;;;;;;;;;;-2.01;100.00;100354.81;1789576;78;21527;-66
2021/12/21 12:22:45;;;;;;;5.67;3.07;;;;;;;-2.02;100.00;100377.95;1781703;79;20110;-66
2021/12/21 12:25:24;;;;;;;6.07;3.60;;;;;;;-2.13;100.00;100368.63;1792960;79;21716;-66
2021/12/21 12:27:53;;;;;;;5.43;3.53;;;;;;;-2.16;100.00;100375.77;1786144;78;21543;-66
2021/12/21 12:30:27;;;;;;;6.07;3.27;;;;;;;-2.20;100.00;100390.45;1776556;79;21073;-66
2021/12/21 12:33:01;;;;;;;6.97;3.83;;;;;;;-2.38;100.00;100388.66;1777826;79;20980;-66